createdAt,value
2018-07-17T00:01:43.056Z,3.97
2018-07-17T00:04:12.270Z,3.20
2018-07-17T00:06:41.277Z,3.57
2018-07-17T00:09:10.287Z,3.70
2018-07-17T00:11:39.320Z,3.80
2018-07-17T00:14:08.395Z,3.53
2018-07-17T00:16:37.636Z,3.80
2018-07-17T00:19:07.249Z,3.67
2018-07-17T00:21:36.451Z,3.43
2018-07-17T00:24:05.887Z,3.50
2018-07-17T00:26:35.274Z,3.87
2018-07-17T00:29:04.539Z,3.87
2018-07-17T00:31:33.752Z,3.50
2018-07-17T00:34:02.773Z,3.40
2018-07-17T00:36:32.020Z,3.43
2018-07-17T00:39:01.264Z,3.60
2018-07-17T00:41:30.465Z,3.87
2018-07-17T00:43:59.471Z,3.30
2018-07-17T00:46:28.712Z,3.60
2018-07-17T00:48:57.935Z,4.07
2018-07-17T00:51:27.540Z,3.33
2018-07-17T00:53:56.784Z,3.83
2018-07-17T00:56:26.013Z,3.73
2018-07-17T00:58:55.511Z,3.77
2018-07-17T01:01:29.792Z,3.40
2018-07-17T01:04:04.040Z,3.47
2018-07-17T01:06:38.248Z,3.80
2018-07-17T01:09:13.137Z,3.77
2018-07-17T01:11:47.172Z,3.70
2018-07-17T01:14:20.304Z,3.90
2018-07-17T01:16:49.508Z,3.80
2018-07-17T01:19:18.727Z,3.63
2018-07-17T01:21:48.243Z,4.03
2018-07-17T01:24:17.268Z,3.90
2018-07-17T01:26:46.417Z,4.10
2018-07-17T01:29:15.412Z,3.70
2018-07-17T01:31:44.492Z,3.70
2018-07-17T01:34:13.700Z,3.90
2018-07-17T01:36:42.916Z,4.37
2018-07-17T01:39:12.154Z,4.10
2018-07-17T01:41:41.189Z,3.60
2018-07-17T01:44:10.573Z,3.90
2018-07-17T01:46:39.827Z,3.57
2018-07-17T01:49:09.056Z,3.33
2018-07-17T01:51:38.084Z,3.23
2018-07-17T01:54:07.477Z,3.30
2018-07-17T01:56:36.952Z,3.20
2018-07-17T01:59:05.959Z,3.40
2018-07-17T02:01:35.201Z,3.70
2018-07-17T02:04:04.772Z,3.20
2018-07-17T02:06:34.196Z,3.17
2018-07-17T02:09:03.384Z,3.73
2018-07-17T02:11:32.683Z,3.43
2018-07-17T02:14:01.695Z,3.97
2018-07-17T02:16:30.696Z,3.57
2018-07-17T02:18:59.400Z,3.57
2018-07-17T02:21:28.766Z,3.53
2018-07-17T02:23:58.216Z,4.30
2018-07-17T02:26:27.960Z,3.77
2018-07-17T02:28:57.056Z,3.43
2018-07-17T02:31:26.371Z,3.57
2018-07-17T02:33:55.516Z,3.60
2018-07-17T02:36:24.736Z,3.60
2018-07-17T02:38:53.748Z,3.57
2018-07-17T02:41:23.017Z,3.67
2018-07-17T02:43:52.222Z,3.60
2018-07-17T02:46:21.455Z,3.30
2018-07-17T02:48:50.439Z,3.67
2018-07-17T02:51:19.514Z,3.13
2018-07-17T02:53:48.756Z,3.50
2018-07-17T02:56:17.748Z,3.50
2018-07-17T02:58:47.023Z,3.57
2018-07-17T03:01:16.201Z,3.83
2018-07-17T03:03:45.610Z,3.23
2018-07-17T03:06:14.672Z,3.50
2018-07-17T03:08:43.886Z,3.60
2018-07-17T03:11:13.117Z,3.33
2018-07-17T03:13:42.113Z,3.50
2018-07-17T03:16:11.380Z,4.00
2018-07-17T03:18:40.393Z,4.07
2018-07-17T03:21:09.627Z,3.93
2018-07-17T03:23:38.617Z,3.90
2018-07-17T03:26:07.656Z,4.00
2018-07-17T03:28:36.865Z,3.30
2018-07-17T03:31:06.183Z,3.90
2018-07-17T03:33:35.364Z,3.70
2018-07-17T03:36:04.612Z,3.50
2018-07-17T03:38:33.807Z,4.00
2018-07-17T03:41:03.051Z,3.57
2018-07-17T03:43:32.031Z,3.90
2018-07-17T03:46:01.104Z,3.97
2018-07-17T03:48:30.086Z,3.70
2018-07-17T03:50:58.940Z,4.10
2018-07-17T03:53:28.108Z,3.90
2018-07-17T03:55:57.180Z,3.70
2018-07-17T03:58:26.203Z,3.60
2018-07-17T04:00:54.658Z,3.63
2018-07-17T04:03:23.157Z,4.20
2018-07-17T04:05:52.345Z,3.30
2018-07-17T04:08:21.587Z,4.17
2018-07-17T04:10:50.570Z,4.43
2018-07-17T04:13:19.669Z,3.60
2018-07-17T04:15:48.996Z,3.50
2018-07-17T04:18:18.195Z,3.33
2018-07-17T04:20:47.318Z,3.50
2018-07-17T04:23:16.538Z,3.50
2018-07-17T04:25:45.769Z,3.43
2018-07-17T04:28:14.758Z,3.37
2018-07-17T04:30:43.988Z,4.07
2018-07-17T04:33:13.239Z,3.90
2018-07-17T04:35:42.522Z,3.70
2018-07-17T04:38:11.472Z,3.07
2018-07-17T04:40:40.508Z,3.70
2018-07-17T04:43:09.545Z,3.23
2018-07-17T04:45:38.787Z,3.67
2018-07-17T04:48:08.012Z,3.17
2018-07-17T04:50:36.839Z,3.00
2018-07-17T04:53:05.853Z,3.53
2018-07-17T04:55:34.884Z,3.10
2018-07-17T04:58:04.152Z,3.57
2018-07-17T05:00:33.356Z,3.53
2018-07-17T05:03:02.348Z,4.03
2018-07-17T05:05:31.632Z,3.73
2018-07-17T05:08:00.877Z,3.23
2018-07-17T05:10:30.067Z,3.40
2018-07-17T05:12:59.140Z,3.67
2018-07-17T05:15:28.320Z,3.43
2018-07-17T05:17:57.547Z,3.30
2018-07-17T05:20:26.844Z,3.50
2018-07-17T05:22:56.018Z,3.70
2018-07-17T05:25:25.047Z,3.90
2018-07-17T05:27:54.259Z,3.50
2018-07-17T05:30:23.363Z,3.50
2018-07-17T05:32:52.468Z,3.50
2018-07-17T05:35:21.538Z,4.50
2018-07-17T05:37:50.555Z,3.47
2018-07-17T05:40:19.836Z,4.10
2018-07-17T05:42:49.036Z,3.57
2018-07-17T05:45:18.431Z,3.30
2018-07-17T05:47:47.660Z,3.40
2018-07-17T05:50:16.911Z,3.80
2018-07-17T05:52:46.120Z,3.57
2018-07-17T05:55:14.628Z,3.53
2018-07-17T05:57:43.089Z,4.70
2018-07-17T06:00:11.573Z,3.90
2018-07-17T06:02:40.092Z,3.37
2018-07-17T06:05:08.567Z,3.50
2018-07-17T06:07:37.524Z,3.87
2018-07-17T06:10:05.974Z,3.90
2018-07-17T06:12:34.467Z,3.33
2018-07-17T06:15:02.942Z,3.80
2018-07-17T06:17:32.115Z,3.63
2018-07-17T06:20:01.109Z,3.50
2018-07-17T06:22:30.314Z,3.60
2018-07-17T06:24:59.584Z,4.33
2018-07-17T06:27:28.784Z,3.70
2018-07-17T06:29:57.794Z,3.60
2018-07-17T06:32:27.069Z,3.70
2018-07-17T06:34:56.494Z,3.93
2018-07-17T06:37:25.698Z,3.93
2018-07-17T06:39:54.916Z,3.60
2018-07-17T06:42:23.927Z,3.93
2018-07-17T06:44:52.995Z,3.50
2018-07-17T06:47:22.034Z,3.70
2018-07-17T06:49:51.253Z,3.53
2018-07-17T06:52:20.468Z,3.87
2018-07-17T06:54:49.689Z,3.53
2018-07-17T06:57:19.004Z,3.30
2018-07-17T06:59:47.680Z,3.33
2018-07-17T07:02:16.793Z,3.70
2018-07-17T07:04:46.014Z,3.30
2018-07-17T07:07:15.029Z,3.60
2018-07-17T07:09:44.274Z,3.90
2018-07-17T07:12:13.509Z,4.47
2018-07-17T07:14:42.525Z,3.77
2018-07-17T07:17:11.580Z,3.63
2018-07-17T07:19:40.573Z,4.10
2018-07-17T07:22:09.812Z,3.87
2018-07-17T07:24:39.023Z,3.53
2018-07-17T07:27:08.244Z,3.90
2018-07-17T07:29:37.250Z,3.33
2018-07-17T07:32:06.674Z,3.63
2018-07-17T07:34:35.936Z,4.00
2018-07-17T07:37:05.204Z,4.03
2018-07-17T07:39:34.152Z,3.23
2018-07-17T07:42:03.242Z,3.60
2018-07-17T07:44:32.211Z,3.20
2018-07-17T07:47:00.757Z,3.40
2018-07-17T07:49:29.379Z,3.80
2018-07-17T07:51:57.861Z,3.70
2018-07-17T07:54:26.348Z,3.40
2018-07-17T07:56:55.625Z,3.50
2018-07-17T07:59:24.864Z,4.43
2018-07-17T08:01:54.044Z,3.50
2018-07-17T08:04:23.377Z,3.53
2018-07-17T08:06:52.693Z,3.57
2018-07-17T08:09:22.114Z,3.83
2018-07-17T08:11:51.475Z,4.43
2018-07-17T08:14:20.761Z,3.80
2018-07-17T08:16:50.024Z,3.47
2018-07-17T08:19:19.380Z,3.37
2018-07-17T08:21:48.534Z,3.13
2018-07-17T08:24:17.774Z,3.70
2018-07-17T08:26:46.945Z,3.57
2018-07-17T08:29:16.957Z,3.53
2018-07-17T08:31:46.037Z,3.80
2018-07-17T08:34:15.054Z,3.47
2018-07-17T08:36:44.044Z,3.53
2018-07-17T08:39:13.079Z,3.87
2018-07-17T08:41:42.331Z,3.33
2018-07-17T08:44:11.323Z,3.73
2018-07-17T08:46:40.367Z,3.80
2018-07-17T08:49:09.528Z,3.77
2018-07-17T08:51:38.872Z,3.60
2018-07-17T08:54:08.584Z,3.57
2018-07-17T08:56:37.867Z,3.40
2018-07-17T08:59:06.407Z,3.70
2018-07-17T09:01:35.723Z,3.60
2018-07-17T09:04:04.716Z,4.07
2018-07-17T09:06:33.717Z,3.60
2018-07-17T09:09:02.890Z,3.60
2018-07-17T09:11:32.197Z,3.90
2018-07-17T09:14:01.427Z,4.30
2018-07-17T09:16:30.712Z,4.40
2018-07-17T09:18:59.672Z,3.80
2018-07-17T09:21:28.960Z,3.80
2018-07-17T09:23:58.203Z,4.13
2018-07-17T09:26:27.343Z,4.90
2018-07-17T09:28:56.607Z,3.83
2018-07-17T09:31:25.828Z,4.70
2018-07-17T09:33:55.072Z,3.80
2018-07-17T09:36:24.061Z,3.70
2018-07-17T09:38:53.295Z,3.60
2018-07-17T09:41:22.715Z,3.90
2018-07-17T09:43:51.766Z,3.80
2018-07-17T09:46:20.798Z,4.00
2018-07-17T09:48:50.003Z,3.77
2018-07-17T09:51:19.253Z,3.80
2018-07-17T09:53:48.219Z,3.57
2018-07-17T09:56:17.003Z,4.00
2018-07-17T09:58:45.508Z,3.40
2018-07-17T10:01:19.385Z,2.97
2018-07-17T10:03:48.167Z,3.83
2018-07-17T10:06:16.800Z,3.70
2018-07-17T10:08:45.339Z,3.60
2018-07-17T10:11:14.009Z,3.77
2018-07-17T10:13:42.548Z,3.50
2018-07-17T10:16:11.114Z,3.70
2018-07-17T10:18:40.326Z,3.83
2018-07-17T10:21:08.960Z,3.70
2018-07-17T10:23:37.473Z,3.40
2018-07-17T10:26:05.965Z,3.47
2018-07-17T10:28:34.597Z,3.47
2018-07-17T10:31:03.173Z,3.30
2018-07-17T10:33:31.703Z,3.40
2018-07-17T10:36:00.207Z,3.30
2018-07-17T10:38:28.733Z,3.20
2018-07-17T10:40:57.278Z,3.00
2018-07-17T10:43:25.940Z,3.47
2018-07-17T10:45:54.508Z,3.20
2018-07-17T10:48:23.017Z,3.77
2018-07-17T10:50:51.627Z,3.20
2018-07-17T10:53:20.196Z,3.10
2018-07-17T10:55:48.737Z,3.33
2018-07-17T10:58:17.267Z,2.93
2018-07-17T11:00:45.793Z,3.10
2018-07-17T11:03:14.497Z,3.30
2018-07-17T11:05:43.071Z,2.83
2018-07-17T11:08:11.835Z,2.50
2018-07-17T11:10:40.380Z,3.27
2018-07-17T11:13:08.870Z,3.47
2018-07-17T11:15:37.392Z,3.70
2018-07-17T11:18:05.992Z,3.30
2018-07-17T11:20:34.603Z,3.30
2018-07-17T11:23:03.172Z,3.37
2018-07-17T11:25:31.663Z,2.77
2018-07-17T11:28:00.326Z,2.90
2018-07-17T11:30:28.892Z,3.17
2018-07-17T11:32:57.419Z,3.07
2018-07-17T11:35:25.946Z,2.70
2018-07-17T11:37:54.455Z,2.73
2018-07-17T11:40:23.085Z,3.17
2018-07-17T11:42:51.564Z,2.37
2018-07-17T11:45:20.445Z,2.80
2018-07-17T11:47:48.975Z,2.90
2018-07-17T11:50:17.500Z,2.97
2018-07-17T11:52:46.007Z,2.80
2018-07-17T11:55:14.563Z,2.70
2018-07-17T11:57:43.151Z,2.90
2018-07-17T12:00:11.842Z,4.50
2018-07-17T12:02:40.354Z,3.07
2018-07-17T12:05:09.125Z,2.80
2018-07-17T12:07:37.727Z,2.93
2018-07-17T12:10:06.222Z,2.60
2018-07-17T12:12:34.756Z,2.43
2018-07-17T12:15:03.304Z,2.80
2018-07-17T12:17:31.809Z,2.53
2018-07-17T12:20:00.323Z,2.73
2018-07-17T12:22:29.014Z,2.57
2018-07-17T12:24:57.490Z,2.67
2018-07-17T12:27:25.955Z,2.70
2018-07-17T12:29:54.870Z,3.13
2018-07-17T12:32:23.811Z,2.37
2018-07-17T12:34:52.510Z,2.53
2018-07-17T12:37:21.451Z,3.53
2018-07-17T12:39:50.436Z,3.10
2018-07-17T12:42:18.955Z,2.77
2018-07-17T12:44:47.399Z,3.10
2018-07-17T12:47:16.035Z,2.63
2018-07-17T12:49:44.554Z,2.50
2018-07-17T12:52:13.048Z,2.70
2018-07-17T12:54:41.564Z,2.37
2018-07-17T12:57:10.056Z,2.93
2018-07-17T12:59:38.621Z,2.40
2018-07-17T13:02:07.282Z,2.33
2018-07-17T13:04:35.853Z,2.57
2018-07-17T13:07:04.320Z,3.10
2018-07-17T13:09:32.776Z,2.27
2018-07-17T13:12:01.295Z,2.60
2018-07-17T13:14:29.832Z,2.60
2018-07-17T13:16:58.341Z,2.80
2018-07-17T13:19:26.875Z,2.70
2018-07-17T13:21:55.348Z,2.77
2018-07-17T13:24:23.823Z,2.57
2018-07-17T13:26:52.296Z,2.03
2018-07-17T13:29:20.749Z,2.20
2018-07-17T13:31:49.551Z,2.57
2018-07-17T13:34:18.013Z,2.63
2018-07-17T13:36:46.490Z,2.57
2018-07-17T13:39:15.050Z,2.57
2018-07-17T13:41:43.454Z,2.57
2018-07-17T13:44:12.403Z,2.73
2018-07-17T13:46:40.879Z,2.37
2018-07-17T13:49:09.598Z,2.37
2018-07-17T13:51:38.250Z,1.93
2018-07-17T13:54:06.708Z,2.10
2018-07-17T13:56:35.252Z,2.30
2018-07-17T13:59:03.735Z,2.30
2018-07-17T14:01:32.211Z,2.20
2018-07-17T14:04:00.684Z,2.53
2018-07-17T14:06:29.176Z,2.40
2018-07-17T14:08:57.658Z,2.50
2018-07-17T14:11:26.160Z,2.53
2018-07-17T14:13:54.629Z,1.90
2018-07-17T14:16:23.518Z,2.10
2018-07-17T14:18:52.039Z,2.40
2018-07-17T14:21:20.546Z,2.10
2018-07-17T14:23:49.082Z,2.10
2018-07-17T14:26:17.589Z,2.23
2018-07-17T14:28:46.084Z,2.33
2018-07-17T14:31:14.556Z,2.23
2018-07-17T14:33:43.051Z,2.17
2018-07-17T14:36:11.533Z,2.37
2018-07-17T14:38:40.018Z,2.03
2018-07-17T14:41:08.495Z,2.10
2018-07-17T14:43:36.965Z,1.97
2018-07-17T14:46:05.709Z,2.60
2018-07-17T14:48:37.271Z,1.80
2018-07-17T14:51:06.668Z,1.83
2018-07-17T14:53:35.205Z,1.93
2018-07-17T14:56:03.844Z,2.23
2018-07-17T14:58:32.317Z,1.87
2018-07-17T15:01:00.896Z,2.30
2018-07-17T15:03:29.360Z,2.03
2018-07-17T15:05:57.859Z,2.10
2018-07-17T15:08:26.325Z,2.03
2018-07-17T15:10:54.802Z,1.90
2018-07-17T15:13:23.270Z,2.33
2018-07-17T15:15:51.754Z,2.00
2018-07-17T15:18:20.247Z,2.00
2018-07-17T15:20:49.222Z,2.10
2018-07-17T15:23:17.671Z,2.10
2018-07-17T15:25:46.130Z,2.10
2018-07-17T15:28:14.648Z,2.70
2018-07-17T15:30:43.133Z,2.70
2018-07-17T15:33:11.583Z,2.10
2018-07-17T15:35:40.222Z,1.83
2018-07-17T15:38:08.726Z,1.93
2018-07-17T15:40:37.200Z,1.83
2018-07-17T15:43:05.769Z,2.20
2018-07-17T15:45:34.412Z,1.90
2018-07-17T15:48:02.862Z,1.90
2018-07-17T15:50:31.320Z,2.13
2018-07-17T15:52:59.960Z,1.70
2018-07-17T15:55:28.567Z,2.00
2018-07-17T15:57:57.039Z,2.30
2018-07-17T16:00:25.505Z,2.00
2018-07-17T16:02:53.989Z,2.00
2018-07-17T16:05:22.503Z,1.97
2018-07-17T16:07:50.976Z,1.70
2018-07-17T16:10:19.677Z,2.10
2018-07-17T16:12:48.163Z,2.27
2018-07-17T16:15:16.619Z,2.40
2018-07-17T16:17:45.158Z,3.67
2018-07-17T16:20:13.853Z,2.10
2018-07-17T16:22:42.444Z,2.00
2018-07-17T16:25:10.972Z,2.03
2018-07-17T16:27:39.440Z,2.27
2018-07-17T16:30:08.513Z,2.10
2018-07-17T16:32:37.132Z,2.33
2018-07-17T16:35:05.884Z,2.03
2018-07-17T16:37:34.420Z,1.93
2018-07-17T16:40:02.988Z,2.33
2018-07-17T16:42:31.545Z,2.40
2018-07-17T16:45:00.228Z,2.27
2018-07-17T16:47:28.738Z,2.17
2018-07-17T16:49:57.328Z,2.00
2018-07-17T16:52:25.827Z,2.20
2018-07-17T16:54:54.487Z,2.27
2018-07-17T16:57:23.103Z,1.90
2018-07-17T16:59:51.590Z,2.17
2018-07-17T17:02:20.176Z,1.87
2018-07-17T17:04:48.693Z,2.00
2018-07-17T17:07:17.186Z,2.30
2018-07-17T17:09:49.244Z,1.93
2018-07-17T17:12:17.734Z,1.90
2018-07-17T17:14:46.363Z,2.90
2018-07-17T17:17:19.408Z,2.03
2018-07-17T17:19:47.962Z,2.20
2018-07-17T17:22:16.435Z,2.03
2018-07-17T17:24:45.122Z,2.00
2018-07-17T17:27:13.646Z,2.00
2018-07-17T17:29:42.441Z,2.60
2018-07-17T17:32:10.977Z,2.10
2018-07-17T17:34:39.452Z,2.17
2018-07-17T17:37:07.989Z,1.97
2018-07-17T17:39:36.660Z,2.30
2018-07-17T17:42:05.037Z,2.07
2018-07-17T17:44:33.516Z,2.10
2018-07-17T17:47:02.024Z,2.10
2018-07-17T17:49:30.653Z,1.67
2018-07-17T17:51:59.138Z,1.90
2018-07-17T17:54:27.693Z,2.10
2018-07-17T17:56:56.473Z,1.77
2018-07-17T17:59:25.035Z,2.27
2018-07-17T18:01:53.667Z,1.63
2018-07-17T18:04:22.164Z,1.77
2018-07-17T18:06:50.837Z,1.90
2018-07-17T18:09:19.345Z,2.20
2018-07-17T18:11:47.834Z,1.93
2018-07-17T18:14:16.347Z,2.00
2018-07-17T18:16:44.865Z,2.10
2018-07-17T18:19:13.421Z,2.33
2018-07-17T18:21:41.955Z,1.90
2018-07-17T18:24:10.488Z,2.03
2018-07-17T18:26:39.069Z,1.77
2018-07-17T18:29:07.558Z,1.73
2018-07-17T18:31:36.133Z,1.90
2018-07-17T18:34:05.114Z,2.03
2018-07-17T18:36:33.637Z,1.97
2018-07-17T18:39:02.151Z,1.87
2018-07-17T18:41:30.809Z,2.10
2018-07-17T18:43:59.288Z,2.00
2018-07-17T18:46:27.916Z,1.87
2018-07-17T18:48:56.478Z,2.00
2018-07-17T18:51:25.092Z,1.93
2018-07-17T18:53:53.696Z,1.83
2018-07-17T18:56:22.273Z,1.93
2018-07-17T18:58:50.822Z,1.63
2018-07-17T19:01:19.698Z,1.50
2018-07-17T19:03:48.288Z,1.57
2018-07-17T19:06:16.995Z,1.93
2018-07-17T19:08:45.580Z,1.90
2018-07-17T19:11:14.562Z,1.97
2018-07-17T19:13:43.040Z,2.03
2018-07-17T19:16:11.508Z,1.83
2018-07-17T19:18:39.979Z,2.10
2018-07-17T19:21:08.460Z,1.70
2018-07-17T19:23:37.001Z,2.30
2018-07-17T19:26:05.642Z,1.43
2018-07-17T19:28:34.144Z,1.40
2018-07-17T19:31:02.675Z,1.70
2018-07-17T19:33:31.168Z,1.50
2018-07-17T19:35:59.628Z,1.40
2018-07-17T19:38:28.127Z,1.20
2018-07-17T19:40:56.656Z,1.70
2018-07-17T19:43:25.137Z,1.80
2018-07-17T19:45:53.611Z,1.73
2018-07-17T19:48:22.156Z,1.83
2018-07-17T19:50:50.655Z,1.60
2018-07-17T19:53:19.168Z,1.77
2018-07-17T19:55:47.688Z,1.77
2018-07-17T19:58:16.198Z,1.90
2018-07-17T20:00:44.783Z,2.00
2018-07-17T20:03:13.343Z,1.90
2018-07-17T20:05:42.114Z,1.63
2018-07-17T20:08:10.676Z,2.20
2018-07-17T20:10:40.719Z,1.70
2018-07-17T20:13:10.148Z,1.73
2018-07-17T20:15:39.019Z,1.50
2018-07-17T20:18:08.519Z,1.90
2018-07-17T20:20:37.230Z,1.30
2018-07-17T20:23:05.938Z,1.30
2018-07-17T20:25:34.659Z,1.70
2018-07-17T20:28:03.332Z,1.43
2018-07-17T20:30:32.001Z,1.37
2018-07-17T20:33:00.783Z,1.63
2018-07-17T20:35:29.961Z,1.60
2018-07-17T20:37:59.055Z,1.40
2018-07-17T20:40:28.548Z,1.60
2018-07-17T20:42:57.242Z,1.70
2018-07-17T20:45:26.079Z,1.30
2018-07-17T20:47:54.818Z,1.40
2018-07-17T20:50:23.708Z,1.50
2018-07-17T20:52:52.533Z,1.33
2018-07-17T20:55:21.114Z,1.30
2018-07-17T20:57:49.573Z,1.33
2018-07-17T21:00:18.040Z,1.37
2018-07-17T21:02:46.532Z,1.60
2018-07-17T21:05:15.144Z,1.30
2018-07-17T21:07:43.866Z,1.20
2018-07-17T21:10:12.560Z,1.80
2018-07-17T21:12:41.026Z,1.33
2018-07-17T21:15:10.017Z,1.47
2018-07-17T21:17:38.481Z,1.30
2018-07-17T21:20:06.945Z,1.30
2018-07-17T21:22:35.399Z,1.43
2018-07-17T21:25:04.271Z,1.90
2018-07-17T21:27:32.724Z,1.87
2018-07-17T21:30:01.189Z,1.20
2018-07-17T21:32:29.734Z,1.60
2018-07-17T21:34:58.308Z,1.50
2018-07-17T21:37:26.925Z,1.50
2018-07-17T21:39:55.439Z,1.83
2018-07-17T21:42:23.920Z,1.70
2018-07-17T21:44:52.877Z,1.60
2018-07-17T21:47:21.825Z,1.47
2018-07-17T21:49:50.862Z,1.40
2018-07-17T21:52:19.341Z,1.40
2018-07-17T21:54:48.476Z,1.50
2018-07-17T21:57:17.521Z,1.97
2018-07-17T21:59:45.975Z,2.10
2018-07-17T22:02:14.525Z,3.37
2018-07-17T22:04:43.064Z,4.40
2018-07-17T22:07:11.613Z,5.47
2018-07-17T22:09:40.848Z,4.13
2018-07-17T22:12:09.358Z,2.47
2018-07-17T22:14:37.847Z,1.63
2018-07-17T22:17:06.404Z,1.33
2018-07-17T22:19:34.976Z,1.20
2018-07-17T22:22:03.511Z,1.20
2018-07-17T22:24:32.068Z,1.20
2018-07-17T22:27:00.580Z,1.10
2018-07-17T22:29:29.165Z,1.00
2018-07-17T22:31:57.788Z,1.13
2018-07-17T22:34:26.347Z,1.23
2018-07-17T22:36:54.829Z,1.30
2018-07-17T22:39:23.327Z,0.90
2018-07-17T22:41:52.054Z,1.20
2018-07-17T22:44:20.546Z,1.20
2018-07-17T22:46:49.160Z,1.20
2018-07-17T22:49:20.912Z,1.17
2018-07-17T22:51:49.924Z,1.83
2018-07-17T22:54:18.451Z,1.33
2018-07-17T22:56:47.277Z,1.40
2018-07-17T22:59:16.423Z,1.20
2018-07-17T23:01:45.045Z,1.20
2018-07-17T23:04:14.222Z,1.40
2018-07-17T23:06:42.688Z,1.43
2018-07-17T23:09:11.737Z,1.43
2018-07-17T23:11:40.917Z,1.40
2018-07-17T23:14:10.028Z,1.00
2018-07-17T23:16:38.570Z,1.93
2018-07-17T23:19:07.349Z,1.00
2018-07-17T23:21:35.881Z,1.17
2018-07-17T23:24:04.454Z,1.60
2018-07-17T23:26:33.076Z,1.53
2018-07-17T23:29:02.592Z,1.10
2018-07-17T23:31:31.053Z,1.30
2018-07-17T23:34:00.163Z,1.10
2018-07-17T23:36:29.435Z,1.20
2018-07-17T23:38:58.568Z,1.60
2018-07-17T23:41:27.164Z,1.37
2018-07-17T23:43:56.127Z,1.30
2018-07-17T23:46:25.695Z,1.10
2018-07-17T23:48:54.289Z,1.10
2018-07-17T23:51:22.879Z,1.40
2018-07-17T23:53:51.398Z,1.13
2018-07-17T23:56:20.668Z,1.10
2018-07-17T23:58:49.201Z,1.17
